Time;durP1;ratioP1;P1;durP2;ratioP2;P2;SDS_P1;SDS_P2;PMS_P1;PMS_P2;Temp;Humidity;BMP_temperature;BMP_pressure;BME280_temperature;BME280_humidity;BME280_pressure;Samples;Min_cycle;Max_cycle;Signal;HPM_P1;HPM_P2
2023/03/13 02:00:32;;;;;;;10.15;2.08;;;8.60;99.90;;;;;;6217386;23;20020;-93
2023/03/13 02:03:04;;;;;;;8.32;1.80;;;8.60;99.90;;;;;;6166791;23;20024;-92
2023/03/13 02:05:37;;;;;;;8.10;1.60;;;8.60;99.90;;;;;;6166562;23;20020;-93
2023/03/13 02:08:10;;;;;;;7.10;1.73;;;8.60;99.90;;;;;;6168138;23;20401;-93
2023/03/13 02:10:51;;;;;;;9.43;2.10;;;8.60;99.90;;;;;;6168098;23;20021;-92
2023/03/13 02:13:48;;;;;;;9.85;1.67;;;8.60;99.90;;;;;;6168084;23;20418;-93
2023/03/13 02:16:23;;;;;;;8.38;1.73;;;8.60;99.90;;;;;;6167580;23;20017;-93
2023/03/13 02:18:58;;;;;;;6.00;1.65;;;8.60;99.90;;;;;;6167204;23;20070;-93
2023/03/13 02:21:40;;;;;;;;;;;8.60;99.90;;;;;;6168553;23;20017;-95
2023/03/13 02:28:07;;;;;;;;;;;8.60;99.90;;;;;;6219033;23;20496;-92
2023/03/13 02:30:33;;;;;;;6.18;1.95;;;8.60;99.90;;;;;;6191409;23;19938;-91
2023/03/13 02:33:01;;;;;;;9.53;1.80;;;8.60;99.90;;;;;;6166461;23;20529;-92
2023/03/13 02:35:27;;;;;;;5.68;1.20;;;8.60;99.90;;;;;;6166169;23;20290;-93
2023/03/13 02:37:58;;;;;;;;;;;8.60;99.90;;;;;;6166752;23;20469;-93
2023/03/13 02:40:28;;;;;;;6.97;1.80;;;8.60;99.90;;;;;;6166421;23;20330;-91
2023/03/13 02:43:39;;;;;;;5.80;1.75;;;8.60;99.90;;;;;;6167401;23;20481;-91
2023/03/13 02:46:10;;;;;;;6.03;1.70;;;8.60;99.90;;;;;;6161715;23;20016;-90
2023/03/13 02:48:45;;;;;;;7.78;1.80;;;8.60;99.90;;;;;;6166535;23;20017;-90
2023/03/13 02:51:16;;;;;;;10.23;2.50;;;8.60;99.90;;;;;;6166353;23;20017;-88
2023/03/13 03:14:44;;;;;;;5.85;1.10;;;8.70;99.90;;;;;;6217444;23;20024;-91
2023/03/13 03:17:13;;;;;;;3.67;1.17;;;8.70;99.90;;;;;;6166650;23;20327;-91
2023/03/13 03:19:38;;;;;;;3.00;1.20;;;8.70;99.90;;;;;;6141275;23;20477;-90
2023/03/13 03:44:52;;;;;;;2.35;0.88;;;8.90;99.90;;;;;;6186873;23;20025;-88
2023/03/13 03:47:17;;;;;;;2.93;1.07;;;9.00;99.90;;;;;;6135719;23;20043;-93
2023/03/13 03:49:43;;;;;;;2.67;1.10;;;9.00;99.90;;;;;;6136177;23;20347;-89
2023/03/13 04:26:41;;;;;;;1.33;0.60;;;9.30;99.90;;;;;;6199122;23;20017;-90
2023/03/13 04:29:07;;;;;;;2.67;0.82;;;9.30;99.90;;;;;;6135284;23;20025;-91
2023/03/13 04:31:35;;;;;;;2.70;0.80;;;9.30;99.90;;;;;;6135840;23;20025;-91
2023/03/13 04:34:04;;;;;;;2.75;0.80;;;9.30;99.90;;;;;;6110673;23;20084;-94
2023/03/13 04:36:35;;;;;;;3.53;1.20;;;9.50;99.90;;;;;;6135766;23;20053;-91
2023/03/13 04:39:01;;;;;;;2.72;1.40;;;9.50;99.90;;;;;;6135693;23;20024;-89
2023/03/13 04:41:27;;;;;;;3.70;1.33;;;9.60;99.90;;;;;;6135472;23;20017;-91
2023/03/13 04:43:55;;;;;;;3.63;1.42;;;9.70;99.90;;;;;;6135480;23;20080;-90
2023/03/13 04:46:21;;;;;;;4.55;1.63;;;9.70;99.90;;;;;;6135208;23;20108;-88
2023/03/13 04:48:50;;;;;;;4.10;1.67;;;9.80;99.90;;;;;;6135660;23;20045;-93
2023/03/13 04:51:18;;;;;;;4.45;1.80;;;9.90;99.90;;;;;;6134944;23;20438;-90
2023/03/13 04:53:44;;;;;;;4.47;1.95;;;9.90;99.90;;;;;;6134912;23;20056;-90
2023/03/13 05:27:14;;;;;;;6.68;2.80;;;10.70;99.90;;;;;;6156681;23;20467;-90
2023/03/13 05:29:40;;;;;;;6.23;2.90;;;10.80;99.90;;;;;;6108033;23;20021;-90
2023/03/13 05:32:06;;;;;;;7.53;3.33;;;10.90;99.90;;;;;;6108127;23;20022;-90
2023/03/13 05:34:32;;;;;;;7.72;2.70;;;10.90;99.90;;;;;;6108334;23;20018;-89
2023/03/13 05:37:00;;;;;;;5.23;2.67;;;10.90;99.90;;;;;;6083665;23;20020;-95
2023/03/13 05:39:47;;;;;;;5.40;2.22;;;11.00;99.90;;;;;;6109203;23;20018;-92
2023/03/13 05:42:13;;;;;;;5.70;2.35;;;11.10;99.90;;;;;;6108145;23;20081;-91
2023/03/13 05:44:39;;;;;;;6.13;2.17;;;11.10;99.90;;;;;;6108392;23;20060;-90
2023/03/13 05:47:06;;;;;;;5.10;1.97;;;11.20;99.90;;;;;;6085193;23;20443;-93
2023/03/13 05:50:18;;;;;;;6.95;2.00;;;11.20;99.90;;;;;;6085343;23;20024;-92
2023/03/13 05:56:16;;;;;;;8.70;1.77;;;11.20;99.90;;;;;;6135281;23;20040;-93
2023/03/13 05:58:41;;;;;;;6.72;2.28;;;11.20;99.90;;;;;;6108867;23;20435;-91
2023/03/13 06:01:09;;;;;;;4.30;1.90;;;11.20;99.90;;;;;;6108447;23;20052;-94
2023/03/13 06:03:34;;;;;;;4.78;1.75;;;11.20;99.90;;;;;;6109516;23;20253;-95
2023/03/13 06:06:01;;;;;;;5.03;1.70;;;11.20;99.90;;;;;;6106662;23;20040;-93
2023/03/13 06:08:34;;;;;;;4.60;1.40;;;11.30;99.90;;;;;;6111977;23;20020;-96
2023/03/13 06:11:03;;;;;;;5.13;2.60;;;11.30;99.90;;;;;;6110130;23;20104;-92
2023/03/13 06:13:29;;;;;;;6.22;1.98;;;11.30;99.90;;;;;;6108658;23;20021;-90
2023/03/13 06:16:12;;;;;;;;;;;;;;;;;;;;;
2023/03/13 06:18:41;;;;;;;4.38;1.77;;;11.30;99.90;;;;;;6134429;23;20023;-89
2023/03/13 06:21:07;;;;;;;4.03;1.60;;;11.30;99.90;;;;;;6085883;23;20022;-94
2023/03/13 06:24:12;;;;;;;3.63;1.42;;;11.30;99.90;;;;;;6110103;23;20025;-94
2023/03/13 06:26:37;;;;;;;5.25;1.58;;;11.30;99.90;;;;;;6109834;23;20025;-95
2023/03/13 06:29:06;;;;;;;8.40;2.40;;;11.30;99.90;;;;;;6084818;23;20025;-93
2023/03/13 06:31:34;;;;;;;11.40;2.45;;;11.30;99.90;;;;;;6085117;23;20014;-91
2023/03/13 06:34:51;;;;;;;6.55;2.33;;;11.30;99.90;;;;;;6083623;23;20032;-91
2023/03/13 06:40:45;;;;;;;8.15;2.15;;;11.30;99.90;;;;;;6159407;23;20502;-94
2023/03/13 06:43:10;;;;;;;5.30;2.17;;;11.30;99.90;;;;;;6110922;23;20029;-92
2023/03/13 06:45:36;;;;;;;4.65;2.15;;;11.30;99.90;;;;;;6111235;23;20249;-91
2023/03/13 06:48:03;;;;;;;6.83;2.03;;;11.30;99.90;;;;;;6091426;23;20158;-95
2023/03/13 06:50:29;;;;;;;5.47;1.85;;;11.30;99.90;;;;;;6112061;23;20406;-93
2023/03/13 06:53:12;;;;;;;4.53;1.85;;;11.30;99.90;;;;;;6113832;23;20025;-93
2023/03/13 06:55:38;;;;;;;6.32;2.00;;;11.40;99.90;;;;;;6114026;23;20022;-95
2023/03/13 06:58:03;;;;;;;6.00;2.03;;;11.40;99.90;;;;;;6089657;23;20014;-95
2023/03/13 07:00:29;;;;;;;6.70;2.27;;;11.40;99.90;;;;;;6112613;23;20071;-93
2023/03/13 07:38:17;;;;;;;5.85;2.15;;;11.80;99.90;;;;;;6215187;23;20028;-92
2023/03/13 07:40:48;;;;;;;6.47;1.40;;;11.80;99.90;;;;;;6166897;23;20051;-92
2023/03/13 07:43:14;;;;;;;7.28;2.17;;;11.80;99.90;;;;;;6167537;23;20025;-96
2023/03/13 07:45:51;;;;;;;6.93;1.58;;;11.80;99.90;;;;;;6167673;23;20023;-94
2023/03/13 07:48:30;;;;;;;4.95;1.65;;;11.80;99.90;;;;;;6166250;23;20016;-91
2023/03/13 07:51:35;;;;;;;4.25;1.70;;;11.80;99.90;;;;;;6169783;23;20055;-94
2023/03/13 08:19:56;;;;;;;3.33;1.65;;;11.70;99.90;;;;;;6192157;23;20025;-95
2023/03/13 08:32:44;;;;;;;5.15;0.90;;;11.80;99.90;;;;;;6218915;23;20035;-93
2023/03/13 08:35:09;;;;;;;2.95;0.55;;;11.90;99.90;;;;;;6171188;23;20103;-93
2023/03/13 08:37:44;;;;;;;3.37;0.87;;;12.00;99.90;;;;;;6170807;23;20068;-96
2023/03/13 08:40:16;;;;;;;4.10;1.20;;;12.10;99.90;;;;;;6145610;23;20017;-93
2023/03/13 09:11:14;;;;;;;1.45;0.50;;;13.00;99.90;;;;;;6222390;23;20027;-96
2023/03/13 09:13:51;;;;;;;3.13;1.00;;;13.00;99.90;;;;;;6175473;23;20024;-95
2023/03/13 09:16:33;;;;;;;5.35;0.70;;;13.10;99.90;;;;;;6202775;23;20009;-94
2023/03/13 09:19:05;;;;;;;4.65;0.52;;;13.10;99.90;;;;;;6176513;23;20032;-96
2023/03/13 09:21:38;;;;;;;1.95;0.65;;;13.10;99.90;;;;;;6197865;23;20100;-92
2023/03/13 09:24:07;;;;;;;1.60;0.40;;;13.00;99.90;;;;;;6147169;23;20016;-94
2023/03/13 09:26:33;;;;;;;5.38;0.85;;;13.00;99.90;;;;;;6171665;23;20468;-93
2023/03/13 09:28:59;;;;;;;3.27;1.00;;;13.00;99.90;;;;;;6148776;23;20016;-93
2023/03/13 09:31:30;;;;;;;3.47;0.60;;;13.00;99.90;;;;;;6171428;23;20275;-93
2023/03/13 09:33:56;;;;;;;2.67;0.50;;;13.00;99.90;;;;;;6170523;23;20023;-94
2023/03/13 09:36:25;;;;;;;4.90;0.95;;;13.00;99.90;;;;;;6171758;23;20077;-95
2023/03/13 09:38:54;;;;;;;2.85;0.95;;;13.00;99.90;;;;;;6195476;23;20102;-95
2023/03/13 09:41:25;;;;;;;3.40;0.95;;;13.00;99.90;;;;;;6147406;23;20013;-91
2023/03/13 09:46:56;;;;;;;5.63;1.08;;;12.80;99.90;;;;;;6217505;23;20031;-91
2023/03/13 09:49:33;;;;;;;4.88;1.08;;;12.70;99.90;;;;;;6170662;23;20074;-95
2023/03/13 09:52:27;;;;;;;2.20;0.70;;;12.70;99.90;;;;;;6169692;23;20020;-92
2023/03/13 09:55:01;;;;;;;5.55;0.80;;;12.70;99.90;;;;;;6155754;23;20017;-95
2023/03/13 09:57:35;;;;;;;5.03;1.35;;;12.70;99.90;;;;;;6170130;23;20095;-94
2023/03/13 10:00:11;;;;;;;;;;;12.70;99.90;;;;;;6196097;23;20150;-93
2023/03/13 10:02:38;;;;;;;5.53;0.98;;;12.80;99.90;;;;;;6170267;23;19916;-94
2023/03/13 10:05:26;;;;;;;4.35;0.60;;;12.80;99.90;;;;;;6170128;23;20023;-92
2023/03/13 10:08:04;;;;;;;4.78;0.90;;;12.90;99.90;;;;;;6168843;23;20089;-93
2023/03/13 10:10:44;;;;;;;3.15;0.98;;;12.90;99.90;;;;;;6168994;23;20400;-92
2023/03/13 10:13:32;;;;;;;5.53;0.75;;;13.00;99.90;;;;;;6168967;23;20024;-91
2023/03/13 10:16:08;;;;;;;5.20;1.25;;;13.10;99.90;;;;;;6167223;23;20016;-90
2023/03/13 10:18:37;;;;;;;3.28;0.85;;;13.30;99.90;;;;;;6168754;23;20016;-93
2023/03/13 10:21:22;;;;;;;5.60;1.10;;;13.40;99.90;;;;;;6169482;23;20454;-95
2023/03/13 10:23:59;;;;;;;8.30;1.67;;;13.50;99.90;;;;;;6171096;23;20017;-93
2023/03/13 10:26:30;;;;;;;7.75;1.30;;;13.70;99.90;;;;;;6170306;23;20469;-94
2023/03/13 10:29:22;;;;;;;7.10;1.20;;;13.80;99.90;;;;;;6169148;23;20016;-95
2023/03/13 10:32:12;;;;;;;4.53;0.95;;;13.80;99.90;;;;;;6170276;23;20028;-94
2023/03/13 10:35:00;;;;;;;5.35;1.33;;;13.90;99.90;;;;;;6183451;23;20055;-95
2023/03/13 10:37:29;;;;;;;5.20;0.85;;;13.90;99.90;;;;;;6169756;23;20020;-95
2023/03/13 10:40:18;;;;;;;6.82;1.13;;;13.90;99.90;;;;;;6169616;23;20379;-93
2023/03/13 10:42:47;;;;;;;6.88;1.20;;;13.90;99.90;;;;;;6170289;23;20091;-91
2023/03/13 11:39:58;;;;;;;7.25;1.42;;;14.10;99.90;;;;;;6220733;23;20020;-92
2023/03/13 11:51:13;;;;;;;2.05;0.63;;;14.00;99.90;;;;;;6216995;23;20025;-90
2023/03/13 11:53:44;;;;;;;6.07;1.17;;;14.00;99.90;;;;;;6166429;23;20147;-93
2023/03/13 11:56:36;;;;;;;3.90;0.60;;;14.00;99.90;;;;;;6190741;23;20442;-91
2023/03/13 12:03:16;;;;;;;4.43;0.82;;;14.10;99.90;;;;;;6216862;23;20704;-88
2023/03/13 12:05:58;;;;;;;4.20;0.85;;;14.10;99.90;;;;;;6165538;23;20104;-90
2023/03/13 12:08:35;;;;;;;6.13;1.00;;;14.10;99.90;;;;;;6165577;23;20016;-89
2023/03/13 12:11:19;;;;;;;3.83;0.90;;;14.20;99.90;;;;;;6164069;23;20028;-88
2023/03/13 12:14:17;;;;;;;6.22;1.00;;;14.20;99.90;;;;;;6166395;23;20078;-89
2023/03/13 12:17:04;;;;;;;;;;;14.20;99.90;;;;;;6166874;23;20019;-90
2023/03/13 12:19:59;;;;;;;3.63;0.88;;;14.20;99.90;;;;;;6165748;23;19942;-91
2023/03/13 12:22:37;;;;;;;4.82;0.82;;;14.30;99.90;;;;;;6145315;23;20023;-90
2023/03/13 12:25:33;;;;;;;4.43;0.77;;;14.20;99.90;;;;;;6166135;23;20021;-92
2023/03/13 12:51:02;;;;;;;4.05;0.88;;;14.60;99.90;;;;;;6190935;23;20048;-93
2023/03/13 12:54:19;;;;;;;3.47;0.80;;;14.60;99.90;;;;;;6188199;23;20025;-94
2023/03/13 12:57:24;;;;;;;4.63;0.80;;;14.60;99.90;;;;;;6052262;23;20029;-94
2023/03/13 12:59:59;;;;;;;9.20;1.70;;;14.70;99.90;;;;;;6097355;23;20021;-94
2023/03/13 13:02:28;;;;;;;5.43;0.70;;;14.70;99.90;;;;;;6164849;23;20092;-93
2023/03/13 13:04:59;;;;;;;3.75;0.73;;;14.70;99.90;;;;;;6139306;23;20032;-90
2023/03/13 13:07:32;;;;;;;6.90;1.10;;;14.80;99.90;;;;;;6115855;23;20080;-92
2023/03/13 13:10:20;;;;;;;7.63;0.98;;;14.80;99.90;;;;;;6115002;23;20025;-91
2023/03/13 13:13:12;;;;;;;4.80;1.27;;;14.70;99.90;;;;;;6187719;23;20017;-93
2023/03/13 13:15:44;;;;;;;6.43;1.30;;;14.70;99.90;;;;;;6138933;23;20017;-92
2023/03/13 13:18:24;;;;;;;6.72;1.10;;;14.60;99.90;;;;;;6138472;23;20079;-93
2023/03/13 13:21:03;;;;;;;6.72;1.10;;;14.60;99.90;;;;;;6137488;23;20017;-93
2023/03/13 13:23:33;;;;;;;8.15;1.30;;;14.60;99.90;;;;;;6162137;23;20021;-95
2023/03/13 13:26:32;;;;;;;6.25;0.95;;;14.60;99.90;;;;;;6138955;23;20008;-94
2023/03/13 13:29:21;;;;;;;8.10;1.45;;;14.60;99.90;;;;;;6187961;23;20021;-95
2023/03/13 13:31:46;;;;;;;8.02;1.10;;;14.60;99.90;;;;;;6137673;23;20024;-91
2023/03/13 13:34:31;;;;;;;9.50;1.50;;;14.50;99.90;;;;;;6186865;23;20020;-95
2023/03/13 13:36:58;;;;;;;6.68;1.20;;;14.60;99.90;;;;;;6187351;23;20020;-95
2023/03/13 13:39:48;;;;;;;5.13;0.82;;;14.60;99.90;;;;;;6113943;23;20024;-95
2023/03/13 13:42:29;;;;;;;7.90;1.23;;;14.50;99.90;;;;;;6137847;23;20431;-95
2023/03/13 13:44:59;;;;;;;7.72;2.33;;;14.60;99.90;;;;;;6187291;23;20021;-93
2023/03/13 13:47:29;;;;;;;8.90;1.90;;;14.50;99.90;;;;;;6186340;23;20040;-93
2023/03/13 13:49:59;;;;;;;7.82;1.52;;;14.50;99.90;;;;;;6161383;23;20017;-92
2023/03/13 13:52:41;;;;;;;7.88;1.52;;;14.50;99.90;;;;;;6138020;23;20033;-89
2023/03/13 13:55:31;;;;;;;7.00;1.10;;;14.50;99.90;;;;;;6137433;23;20023;-93
2023/03/13 13:58:13;;;;;;;9.75;1.40;;;14.50;99.90;;;;;;6163110;23;20071;-92
2023/03/13 14:00:52;;;;;;;5.90;0.98;;;14.50;99.90;;;;;;6138209;23;20024;-94
2023/03/13 14:03:24;;;;;;;5.05;1.00;;;14.50;99.90;;;;;;6139211;23;20053;-92
2023/03/13 14:09:57;;;;;;;4.88;0.98;;;14.50;99.90;;;;;;6191574;23;20414;-94
2023/03/13 14:12:32;;;;;;;6.38;1.83;;;14.60;99.90;;;;;;6107083;23;20037;-93
2023/03/13 14:15:19;;;;;;;7.88;1.30;;;14.60;99.90;;;;;;6141102;23;20013;-94
2023/03/13 14:17:50;;;;;;;7.75;1.25;;;14.60;99.90;;;;;;6143184;23;20091;-91
2023/03/13 14:20:39;;;;;;;8.82;1.33;;;14.60;99.90;;;;;;6142000;23;20020;-88
2023/03/13 14:23:10;;;;;;;5.22;1.30;;;14.60;99.90;;;;;;6139880;23;20021;-94
2023/03/13 14:25:45;;;;;;;4.60;1.08;;;14.50;99.90;;;;;;6139458;23;20023;-94
2023/03/13 14:28:29;;;;;;;7.45;1.45;;;14.50;99.90;;;;;;6164234;23;20017;-92
2023/03/13 14:30:59;;;;;;;5.68;1.23;;;14.50;99.90;;;;;;6141339;23;20060;-95
2023/03/13 14:33:26;;;;;;;6.40;0.85;;;14.40;99.90;;;;;;6139647;23;20021;-95
2023/03/13 14:35:56;;;;;;;5.53;1.30;;;14.30;99.90;;;;;;6139693;23;20164;-93
2023/03/13 14:38:31;;;;;;;10.15;1.60;;;14.30;99.90;;;;;;6163295;23;20451;-92
2023/03/13 14:40:57;;;;;;;3.97;0.80;;;14.30;99.90;;;;;;6137489;23;20114;-93
2023/03/13 14:43:34;;;;;;;7.03;1.25;;;14.20;99.90;;;;;;6114467;23;20021;-92
2023/03/13 14:46:13;;;;;;;5.72;0.70;;;14.30;99.90;;;;;;6139043;23;20063;-94
2023/03/13 14:48:38;;;;;;;7.82;1.25;;;14.30;99.90;;;;;;6116473;23;20036;-89
2023/03/13 14:51:20;;;;;;;6.97;1.27;;;14.30;99.90;;;;;;6136991;23;20446;-90
2023/03/13 14:54:04;;;;;;;4.63;1.00;;;14.30;99.90;;;;;;6161962;23;20017;-93
2023/03/13 14:56:37;;;;;;;8.52;1.50;;;14.30;99.90;;;;;;6137480;23;20017;-91
2023/03/13 14:59:26;;;;;;;8.48;1.75;;;14.40;99.90;;;;;;6137152;23;20048;-91
2023/03/13 15:02:22;;;;;;;8.63;1.00;;;14.40;99.90;;;;;;6125527;23;20024;-93
2023/03/13 15:05:06;;;;;;;10.80;1.48;;;14.30;99.90;;;;;;6160589;23;20026;-94
2023/03/13 15:10:24;;;;;;;6.60;1.40;;;14.30;99.90;;;;;;6216870;23;20028;-95
2023/03/13 15:12:50;;;;;;;5.95;1.70;;;14.30;99.90;;;;;;6166788;23;20096;-92
2023/03/13 15:15:17;;;;;;;6.60;1.10;;;14.30;99.90;;;;;;6167089;23;20020;-90
2023/03/13 15:17:42;;;;;;;;;;;14.20;99.90;;;;;;6142845;23;20020;-90
2023/03/13 15:22:46;;;;;;;10.80;1.48;;;14.20;99.90;;;;;;6187506;23;20020;-91
2023/03/13 15:25:21;;;;;;;9.40;1.35;;;14.10;99.90;;;;;;6113807;23;20027;-89
2023/03/13 15:27:57;;;;;;;7.85;1.67;;;14.10;99.90;;;;;;6136628;23;20096;-93
2023/03/13 15:40:51;;;;;;;9.70;1.65;;;14.00;99.90;;;;;;6217249;23;20032;-92
2023/03/13 15:43:19;;;;;;;8.77;1.20;;;14.00;99.90;;;;;;6192408;23;20044;-90
2023/03/13 15:45:50;;;;;;;10.48;1.90;;;14.00;99.90;;;;;;6166417;23;20031;-90
2023/03/13 15:48:30;;;;;;;5.88;1.40;;;13.90;99.90;;;;;;6166580;23;20013;-91
2023/03/13 15:51:02;;;;;;;6.88;1.10;;;13.90;99.90;;;;;;6167201;23;20028;-90
2023/03/13 15:58:51;;;;;;;11.63;1.73;;;13.80;99.90;;;;;;6186341;23;20075;-90
2023/03/13 16:01:17;;;;;;;9.40;1.45;;;13.80;99.90;;;;;;6110877;23;20032;-88
2023/03/13 16:19:29;;;;;;;10.15;1.45;;;13.50;99.90;;;;;;6187610;23;20029;-92
2023/03/13 16:22:04;;;;;;;9.27;1.75;;;13.50;99.90;;;;;;6136991;23;20025;-95
2023/03/13 16:24:33;;;;;;;10.40;1.10;;;13.40;99.90;;;;;;6135787;23;20017;-90
2023/03/13 16:26:58;;;;;;;8.73;1.33;;;13.30;99.90;;;;;;6087346;23;20017;-88
2023/03/13 16:29:24;;;;;;;7.20;1.23;;;13.30;99.90;;;;;;6135429;23;20031;-89
2023/03/13 16:31:50;;;;;;;11.47;1.93;;;13.30;99.90;;;;;;6110887;23;20017;-89
2023/03/13 16:34:16;;;;;;;8.23;1.17;;;13.30;99.90;;;;;;6135328;23;20255;-87
2023/03/13 16:36:48;;;;;;;8.13;1.17;;;13.20;99.90;;;;;;6135678;23;20761;-91
2023/03/13 16:39:35;;;;;;;8.50;1.63;;;13.20;99.90;;;;;;6136126;23;20028;-90
2023/03/13 16:42:00;;;;;;;13.30;1.60;;;13.20;99.90;;;;;;6136793;23;20028;-88
2023/03/13 16:47:09;;;;;;;12.27;1.80;;;13.10;99.90;;;;;;6187369;23;20260;-88
2023/03/13 16:53:59;;;;;;;9.75;1.27;;;12.90;99.90;;;;;;6186520;23;20103;-93
2023/03/13 16:56:36;;;;;;;11.15;1.35;;;12.90;99.90;;;;;;6135592;23;20021;-91
2023/03/13 16:59:09;;;;;;;7.55;1.60;;;12.80;99.90;;;;;;6135844;23;20087;-91
2023/03/13 17:01:35;;;;;;;8.27;1.52;;;12.80;99.90;;;;;;6135599;23;20478;-92
2023/03/13 17:04:09;;;;;;;7.38;2.10;;;12.80;99.90;;;;;;6135559;23;20033;-91
2023/03/13 17:06:43;;;;;;;8.98;1.67;;;12.70;99.90;;;;;;6135920;23;20071;-92
2023/03/13 17:09:27;;;;;;;7.38;1.33;;;12.70;99.90;;;;;;6136856;23;20107;-94
2023/03/13 17:11:53;;;;;;;7.70;1.42;;;12.70;99.90;;;;;;6111828;23;20044;-93
2023/03/13 17:14:54;;;;;;;11.03;1.47;;;12.60;99.90;;;;;;6112328;23;20017;-92
2023/03/13 17:17:22;;;;;;;13.55;2.65;;;12.60;99.90;;;;;;6137098;23;20028;-93
2023/03/13 17:19:57;;;;;;;7.07;1.60;;;12.50;99.90;;;;;;6136490;23;20013;-93
2023/03/13 17:22:23;;;;;;;13.70;1.88;;;12.50;99.90;;;;;;6136607;23;20021;-92
2023/03/13 18:18:27;;;;;;;12.65;1.75;;;11.90;99.90;;;;;;6217796;23;20021;-94
2023/03/13 19:27:05;;;;;;;8.75;1.38;;;11.30;99.90;;;;;;6216266;23;20021;-91
2023/03/13 19:29:40;;;;;;;10.75;1.38;;;11.30;99.90;;;;;;6166912;23;20020;-93
2023/03/13 19:42:27;;;;;;;9.88;1.58;;;11.40;99.90;;;;;;6188812;23;20472;-91
2023/03/13 19:45:04;;;;;;;7.00;2.00;;;11.40;99.90;;;;;;6163448;23;20099;-93
2023/03/13 19:55:44;;;;;;;7.03;1.23;;;11.40;99.90;;;;;;6217217;22;20430;-93
2023/03/13 19:58:11;;;;;;;10.27;1.70;;;11.40;99.90;;;;;;6165288;23;20024;-92
2023/03/13 20:00:37;;;;;;;9.38;1.70;;;11.40;99.90;;;;;;6140866;23;20013;-89
2023/03/13 20:03:03;;;;;;;12.13;1.67;;;11.40;99.90;;;;;;6165155;23;20380;-87
2023/03/13 20:05:28;;;;;;;8.67;1.20;;;11.40;99.90;;;;;;6165493;23;20302;-92
2023/03/13 20:07:54;;;;;;;6.13;1.10;;;11.40;99.90;;;;;;6165074;23;20017;-88
2023/03/13 20:10:20;;;;;;;7.90;1.80;;;11.40;99.90;;;;;;6165164;23;20016;-89
2023/03/13 20:12:46;;;;;;;15.07;1.67;;;11.40;99.90;;;;;;6165054;23;20021;-91
2023/03/13 20:15:12;;;;;;;11.23;1.40;;;11.40;99.90;;;;;;6165888;23;20888;-85
2023/03/13 20:17:38;;;;;;;9.52;1.35;;;11.40;99.90;;;;;;6191957;23;20020;-93
2023/03/13 20:20:07;;;;;;;9.70;1.50;;;11.30;99.90;;;;;;6168043;23;20048;-89
2023/03/13 20:22:33;;;;;;;10.90;1.35;;;11.30;99.90;;;;;;6166551;23;20016;-91
2023/03/13 20:25:02;;;;;;;13.45;2.20;;;11.30;99.90;;;;;;6141759;23;20048;-91
2023/03/13 20:27:28;;;;;;;5.93;1.60;;;11.30;99.90;;;;;;6164140;23;20320;-88
2023/03/13 20:29:53;;;;;;;9.83;1.80;;;11.30;99.90;;;;;;6114733;23;20167;-88
2023/03/13 20:32:19;;;;;;;10.15;1.95;;;11.30;99.90;;;;;;6187431;23;20024;-88
2023/03/13 20:34:45;;;;;;;10.87;1.87;;;11.30;99.90;;;;;;6116880;23;20055;-89
2023/03/13 20:37:11;;;;;;;9.03;1.50;;;11.20;99.90;;;;;;6164006;23;20013;-93
2023/03/13 20:39:37;;;;;;;6.30;1.60;;;11.20;99.90;;;;;;6166339;23;20095;-89
2023/03/13 20:42:05;;;;;;;13.37;3.33;;;11.20;99.90;;;;;;6165256;23;20020;-89
2023/03/13 20:44:31;;;;;;;10.32;2.35;;;11.20;99.90;;;;;;6142455;23;20317;-89
2023/03/13 20:47:04;;;;;;;10.80;1.70;;;11.10;99.90;;;;;;6166323;23;20020;-87
2023/03/13 20:49:29;;;;;;;7.30;1.75;;;11.10;99.90;;;;;;6166414;23;20013;-92
2023/03/13 20:52:06;;;;;;;10.53;1.70;;;11.10;99.90;;;;;;6166404;23;20094;-93
2023/03/13 20:54:32;;;;;;;9.10;1.53;;;11.10;99.90;;;;;;6190142;23;20067;-85
2023/03/13 20:56:58;;;;;;;8.43;1.07;;;11.10;99.90;;;;;;6159674;23;20025;-94
2023/03/13 20:59:24;;;;;;;;;;;11.10;99.90;;;;;;6164941;23;20017;-90
2023/03/13 21:01:50;;;;;;;11.75;1.92;;;11.10;99.90;;;;;;6213492;23;19916;-91
2023/03/13 21:04:18;;;;;;;10.13;1.30;;;11.00;99.90;;;;;;6138418;23;20021;-91
2023/03/13 21:06:44;;;;;;;9.38;2.30;;;11.00;99.90;;;;;;6162826;23;20053;-91
2023/03/13 21:09:13;;;;;;;9.18;1.60;;;11.00;99.90;;;;;;6163125;23;20048;-89
2023/03/13 21:11:38;;;;;;;10.23;1.53;;;11.00;99.90;;;;;;6162395;23;20024;-88
2023/03/13 21:14:04;;;;;;;10.77;1.83;;;11.00;99.90;;;;;;6162261;23;20020;-91
2023/03/13 21:16:30;;;;;;;12.17;2.60;;;11.00;99.90;;;;;;6187662;23;20095;-92
2023/03/13 21:18:57;;;;;;;7.97;1.70;;;10.90;99.90;;;;;;6161807;23;20439;-90
2023/03/13 21:21:28;;;;;;;11.90;2.03;;;10.90;99.90;;;;;;6162663;23;20021;-93
2023/03/13 21:23:54;;;;;;;8.73;2.10;;;10.90;99.90;;;;;;6113496;23;20008;-90
2023/03/13 21:26:20;;;;;;;12.43;1.77;;;10.90;99.90;;;;;;6163674;23;20017;-93
2023/03/13 21:36:22;;;;;;;8.57;1.20;;;10.80;99.90;;;;;;6219020;23;20020;-89
2023/03/13 21:38:55;;;;;;;11.95;1.67;;;10.80;99.90;;;;;;6167402;23;20029;-91
2023/03/13 21:41:21;;;;;;;12.18;2.40;;;10.80;99.90;;;;;;6167950;23;20017;-87
2023/03/13 21:43:47;;;;;;;11.30;1.33;;;10.80;99.90;;;;;;6169359;23;20027;-94
2023/03/13 21:51:31;;;;;;;9.27;1.65;;;10.70;99.90;;;;;;6218410;22;20028;-90
2023/03/13 21:54:24;;;;;;;6.68;1.23;;;10.70;99.90;;;;;;6137717;23;20062;-91
2023/03/13 23:03:54;;;;;;;8.95;1.05;;;10.40;99.90;;;;;;6218952;23;20024;-92
